sensor_id;sensor_type;location;lat;lon;timestamp;temperature;humidity
10384;DHT22;5238;43.508;4.980;2023-02-24T00:20:18;14.30;91.30
10384;DHT22;5238;43.508;4.980;2023-02-24T00:29:59;14.30;91.30
10384;DHT22;5238;43.508;4.980;2023-02-24T00:32:44;14.30;91.30
10384;DHT22;5238;43.508;4.980;2023-02-24T00:35:30;14.30;91.30
10384;DHT22;5238;43.508;4.980;2023-02-24T00:38:31;14.30;91.30
10384;DHT22;5238;43.508;4.980;2023-02-24T00:51:05;14.20;91.30
10384;DHT22;5238;43.508;4.980;2023-02-24T00:53:37;14.20;91.30
10384;DHT22;5238;43.508;4.980;2023-02-24T00:59:26;14.20;91.30
10384;DHT22;5238;43.508;4.980;2023-02-24T01:01:53;14.20;91.30
10384;DHT22;5238;43.508;4.980;2023-02-24T01:04:36;14.20;91.30
10384;DHT22;5238;43.508;4.980;2023-02-24T01:07:26;14.20;91.30
10384;DHT22;5238;43.508;4.980;2023-02-24T01:10:11;14.20;91.30
10384;DHT22;5238;43.508;4.980;2023-02-24T01:12:56;14.20;91.30
10384;DHT22;5238;43.508;4.980;2023-02-24T01:15:40;14.20;91.30
10384;DHT22;5238;43.508;4.980;2023-02-24T01:31:28;14.30;91.30
10384;DHT22;5238;43.508;4.980;2023-02-24T01:51:25;14.30;91.30
10384;DHT22;5238;43.508;4.980;2023-02-24T01:54:14;14.30;91.30
10384;DHT22;5238;43.508;4.980;2023-02-24T01:57:09;14.30;91.30
10384;DHT22;5238;43.508;4.980;2023-02-24T02:00:41;14.30;91.30
10384;DHT22;5238;43.508;4.980;2023-02-24T02:03:49;14.30;91.30
10384;DHT22;5238;43.508;4.980;2023-02-24T02:09:50;14.20;91.30
10384;DHT22;5238;43.508;4.980;2023-02-24T02:16:12;14.20;91.30
10384;DHT22;5238;43.508;4.980;2023-02-24T02:39:50;14.20;91.30
10384;DHT22;5238;43.508;4.980;2023-02-24T02:42:34;14.10;91.30
10384;DHT22;5238;43.508;4.980;2023-02-24T02:46:08;14.20;91.30
10384;DHT22;5238;43.508;4.980;2023-02-24T02:48:44;14.20;91.30
10384;DHT22;5238;43.508;4.980;2023-02-24T02:58:21;14.10;91.30
10384;DHT22;5238;43.508;4.980;2023-02-24T03:04:55;14.10;91.30
10384;DHT22;5238;43.508;4.980;2023-02-24T03:07:48;14.20;91.30
10384;DHT22;5238;43.508;4.980;2023-02-24T03:10:40;14.20;91.30
10384;DHT22;5238;43.508;4.980;2023-02-24T03:13:32;14.20;91.30
10384;DHT22;5238;43.508;4.980;2023-02-24T03:23:15;14.10;91.30
10384;DHT22;5238;43.508;4.980;2023-02-24T03:36:19;14.10;91.30
10384;DHT22;5238;43.508;4.980;2023-02-24T03:39:06;14.10;91.30
10384;DHT22;5238;43.508;4.980;2023-02-24T03:42:14;14.10;91.30
10384;DHT22;5238;43.508;4.980;2023-02-24T03:44:44;14.10;91.30
10384;DHT22;5238;43.508;4.980;2023-02-24T03:50:53;14.10;91.30
10384;DHT22;5238;43.508;4.980;2023-02-24T04:07:01;14.00;91.30
10384;DHT22;5238;43.508;4.980;2023-02-24T04:10:40;14.10;91.30
10384;DHT22;5238;43.508;4.980;2023-02-24T04:13:32;14.10;91.30
10384;DHT22;5238;43.508;4.980;2023-02-24T04:16:17;14.10;91.30
10384;DHT22;5238;43.508;4.980;2023-02-24T04:25:57;14.10;91.30
10384;DHT22;5238;43.508;4.980;2023-02-24T04:42:05;14.10;91.30
10384;DHT22;5238;43.508;4.980;2023-02-24T04:44:48;14.10;91.30
10384;DHT22;5238;43.508;4.980;2023-02-24T04:54:16;14.00;91.30
10384;DHT22;5238;43.508;4.980;2023-02-24T04:56:52;14.00;91.30
10384;DHT22;5238;43.508;4.980;2023-02-24T04:59:39;14.00;91.30
10384;DHT22;5238;43.508;4.980;2023-02-24T05:09:23;14.00;91.30
10384;DHT22;5238;43.508;4.980;2023-02-24T05:12:07;14.00;91.30
10384;DHT22;5238;43.508;4.980;2023-02-24T05:21:55;14.00;91.30
10384;DHT22;5238;43.508;4.980;2023-02-24T05:24:44;14.00;91.30
10384;DHT22;5238;43.508;4.980;2023-02-24T05:27:31;14.00;91.30
10384;DHT22;5238;43.508;4.980;2023-02-24T05:30:10;14.00;91.30
10384;DHT22;5238;43.508;4.980;2023-02-24T05:33:21;14.00;91.30
10384;DHT22;5238;43.508;4.980;2023-02-24T05:42:49;14.00;91.30
10384;DHT22;5238;43.508;4.980;2023-02-24T05:52:13;14.00;91.30
10384;DHT22;5238;43.508;4.980;2023-02-24T06:01:57;14.00;91.30
10384;DHT22;5238;43.508;4.980;2023-02-24T06:04:41;14.00;91.30
10384;DHT22;5238;43.508;4.980;2023-02-24T06:07:31;13.90;91.30
10384;DHT22;5238;43.508;4.980;2023-02-24T07:01:09;13.70;91.30
10384;DHT22;5238;43.508;4.980;2023-02-24T07:03:36;13.60;91.30
10384;DHT22;5238;43.508;4.980;2023-02-24T07:06:12;13.60;91.30
10384;DHT22;5238;43.508;4.980;2023-02-24T07:08:56;13.60;91.30
10384;DHT22;5238;43.508;4.980;2023-02-24T07:11:24;13.50;91.30
10384;DHT22;5238;43.508;4.980;2023-02-24T07:13:51;13.50;91.30
10384;DHT22;5238;43.508;4.980;2023-02-24T07:16:22;13.50;91.30
10384;DHT22;5238;43.508;4.980;2023-02-24T07:18:53;13.50;91.30
10384;DHT22;5238;43.508;4.980;2023-02-24T07:21:22;13.50;91.30
10384;DHT22;5238;43.508;4.980;2023-02-24T07:23:51;13.50;91.30
10384;DHT22;5238;43.508;4.980;2023-02-24T07:26:23;13.50;91.30
10384;DHT22;5238;43.508;4.980;2023-02-24T07:28:51;13.50;91.30
10384;DHT22;5238;43.508;4.980;2023-02-24T07:31:24;13.50;91.30
10384;DHT22;5238;43.508;4.980;2023-02-24T07:33:52;13.50;91.30
10384;DHT22;5238;43.508;4.980;2023-02-24T07:36:22;13.50;91.30
10384;DHT22;5238;43.508;4.980;2023-02-24T07:38:56;13.60;91.30
10384;DHT22;5238;43.508;4.980;2023-02-24T07:41:24;13.60;91.30
10384;DHT22;5238;43.508;4.980;2023-02-24T07:43:53;13.60;91.30
10384;DHT22;5238;43.508;4.980;2023-02-24T07:46:26;13.70;91.30
10384;DHT22;5238;43.508;4.980;2023-02-24T07:48:55;13.80;91.30
10384;DHT22;5238;43.508;4.980;2023-02-24T07:51:25;13.80;91.30
10384;DHT22;5238;43.508;4.980;2023-02-24T07:53:56;13.90;91.30
10384;DHT22;5238;43.508;4.980;2023-02-24T07:56:26;13.90;91.30
10384;DHT22;5238;43.508;4.980;2023-02-24T07:58:56;14.00;91.30
10384;DHT22;5238;43.508;4.980;2023-02-24T08:01:29;14.10;91.30
10384;DHT22;5238;43.508;4.980;2023-02-24T08:04:05;14.30;91.30
10384;DHT22;5238;43.508;4.980;2023-02-24T08:06:34;14.50;91.30
10384;DHT22;5238;43.508;4.980;2023-02-24T08:09:05;14.60;91.30
10384;DHT22;5238;43.508;4.980;2023-02-24T08:11:44;14.70;91.30
10384;DHT22;5238;43.508;4.980;2023-02-24T08:14:16;14.70;91.30
10384;DHT22;5238;43.508;4.980;2023-02-24T08:16:46;14.90;91.30
10384;DHT22;5238;43.508;4.980;2023-02-24T08:19:15;15.00;91.30
10384;DHT22;5238;43.508;4.980;2023-02-24T08:21:47;15.10;91.30
10384;DHT22;5238;43.508;4.980;2023-02-24T08:24:17;15.10;91.30
10384;DHT22;5238;43.508;4.980;2023-02-24T08:26:45;15.20;91.30
10384;DHT22;5238;43.508;4.980;2023-02-24T08:29:28;15.30;91.30
10384;DHT22;5238;43.508;4.980;2023-02-24T08:31:57;15.40;91.30
10384;DHT22;5238;43.508;4.980;2023-02-24T08:34:24;15.50;91.30
10384;DHT22;5238;43.508;4.980;2023-02-24T08:36:57;15.50;91.30
10384;DHT22;5238;43.508;4.980;2023-02-24T08:39:26;15.40;91.30
10384;DHT22;5238;43.508;4.980;2023-02-24T08:41:55;15.30;91.30
10384;DHT22;5238;43.508;4.980;2023-02-24T08:44:23;15.20;91.30
10384;DHT22;5238;43.508;4.980;2023-02-24T08:46:52;15.10;91.30
10384;DHT22;5238;43.508;4.980;2023-02-24T08:49:21;15.00;91.30
10384;DHT22;5238;43.508;4.980;2023-02-24T08:51:52;15.10;91.30
10384;DHT22;5238;43.508;4.980;2023-02-24T08:54:22;15.40;91.30
10384;DHT22;5238;43.508;4.980;2023-02-24T08:56:53;15.70;91.30
10384;DHT22;5238;43.508;4.980;2023-02-24T08:59:23;16.00;91.30
10384;DHT22;5238;43.508;4.980;2023-02-24T09:02:16;16.20;91.30
10384;DHT22;5238;43.508;4.980;2023-02-24T09:05:04;16.50;91.30
10384;DHT22;5238;43.508;4.980;2023-02-24T09:07:36;16.70;91.30
10384;DHT22;5238;43.508;4.980;2023-02-24T09:10:08;17.00;91.30
10384;DHT22;5238;43.508;4.980;2023-02-24T09:12:37;17.30;91.30
10384;DHT22;5238;43.508;4.980;2023-02-24T09:15:07;17.60;91.30
10384;DHT22;5238;43.508;4.980;2023-02-24T09:17:36;17.90;91.30
10384;DHT22;5238;43.508;4.980;2023-02-24T09:20:19;18.20;91.30
10384;DHT22;5238;43.508;4.980;2023-02-24T09:23:22;18.40;91.30
10384;DHT22;5238;43.508;4.980;2023-02-24T09:25:56;18.60;91.30
10384;DHT22;5238;43.508;4.980;2023-02-24T09:28:23;18.70;91.30
10384;DHT22;5238;43.508;4.980;2023-02-24T09:30:54;18.90;91.30
10384;DHT22;5238;43.508;4.980;2023-02-24T09:33:27;19.10;91.30
10384;DHT22;5238;43.508;4.980;2023-02-24T09:35:58;19.20;91.30
10384;DHT22;5238;43.508;4.980;2023-02-24T09:38:45;19.40;91.30
10384;DHT22;5238;43.508;4.980;2023-02-24T09:41:31;19.60;91.30
10384;DHT22;5238;43.508;4.980;2023-02-24T09:44:21;19.70;91.30
10384;DHT22;5238;43.508;4.980;2023-02-24T09:46:53;19.80;91.30
10384;DHT22;5238;43.508;4.980;2023-02-24T09:49:32;19.90;91.30
10384;DHT22;5238;43.508;4.980;2023-02-24T09:52:10;20.00;91.30
10384;DHT22;5238;43.508;4.980;2023-02-24T09:54:43;20.00;91.30
10384;DHT22;5238;43.508;4.980;2023-02-24T09:57:41;20.00;91.30
10384;DHT22;5238;43.508;4.980;2023-02-24T10:00:39;20.00;91.30
10384;DHT22;5238;43.508;4.980;2023-02-24T10:03:15;20.00;91.30
10384;DHT22;5238;43.508;4.980;2023-02-24T10:06:12;20.10;91.30
10384;DHT22;5238;43.508;4.980;2023-02-24T10:08:49;20.10;91.30
10384;DHT22;5238;43.508;4.980;2023-02-24T10:11:18;20.10;91.30
10384;DHT22;5238;43.508;4.980;2023-02-24T10:14:01;20.10;91.30
10384;DHT22;5238;43.508;4.980;2023-02-24T10:16:35;20.10;91.30
10384;DHT22;5238;43.508;4.980;2023-02-24T10:19:23;20.00;91.30
10384;DHT22;5238;43.508;4.980;2023-02-24T10:21:57;19.80;91.30
10384;DHT22;5238;43.508;4.980;2023-02-24T10:24:32;19.70;91.30
10384;DHT22;5238;43.508;4.980;2023-02-24T10:27:08;19.60;91.30
10384;DHT22;5238;43.508;4.980;2023-02-24T10:29:48;19.60;91.30
10384;DHT22;5238;43.508;4.980;2023-02-24T10:32:24;19.40;91.30
10384;DHT22;5238;43.508;4.980;2023-02-24T10:34:56;19.40;91.30
10384;DHT22;5238;43.508;4.980;2023-02-24T10:37:24;19.30;91.30
10384;DHT22;5238;43.508;4.980;2023-02-24T10:39:58;19.30;91.30
10384;DHT22;5238;43.508;4.980;2023-02-24T10:42:27;19.20;91.30
10384;DHT22;5238;43.508;4.980;2023-02-24T10:45:09;19.20;91.30
10384;DHT22;5238;43.508;4.980;2023-02-24T10:47:39;19.20;91.30
10384;DHT22;5238;43.508;4.980;2023-02-24T10:50:20;19.10;91.30
10384;DHT22;5238;43.508;4.980;2023-02-24T10:52:52;19.00;91.30
10384;DHT22;5238;43.508;4.980;2023-02-24T10:55:55;18.90;91.30
10384;DHT22;5238;43.508;4.980;2023-02-24T10:58:41;18.90;91.30
10384;DHT22;5238;43.508;4.980;2023-02-24T11:01:32;18.80;91.30
10384;DHT22;5238;43.508;4.980;2023-02-24T11:04:20;18.70;91.30
10384;DHT22;5238;43.508;4.980;2023-02-24T11:07:12;18.70;91.30
10384;DHT22;5238;43.508;4.980;2023-02-24T11:10:00;18.60;91.30
10384;DHT22;5238;43.508;4.980;2023-02-24T11:12:42;18.60;91.30
10384;DHT22;5238;43.508;4.980;2023-02-24T11:15:31;18.60;91.30
10384;DHT22;5238;43.508;4.980;2023-02-24T11:18:19;18.50;91.30
10384;DHT22;5238;43.508;4.980;2023-02-24T11:20:50;18.40;91.30
10384;DHT22;5238;43.508;4.980;2023-02-24T11:23:25;18.30;91.30
10384;DHT22;5238;43.508;4.980;2023-02-24T11:25:58;18.30;91.30
10384;DHT22;5238;43.508;4.980;2023-02-24T11:28:50;18.20;91.30
10384;DHT22;5238;43.508;4.980;2023-02-24T11:31:33;18.10;91.30
10384;DHT22;5238;43.508;4.980;2023-02-24T11:34:09;18.00;91.30
10384;DHT22;5238;43.508;4.980;2023-02-24T11:36:44;18.00;91.30
10384;DHT22;5238;43.508;4.980;2023-02-24T11:39:43;18.00;91.30
10384;DHT22;5238;43.508;4.980;2023-02-24T11:42:15;18.00;91.30
10384;DHT22;5238;43.508;4.980;2023-02-24T11:44:55;18.10;91.30
10384;DHT22;5238;43.508;4.980;2023-02-24T11:47:30;18.10;91.30
10384;DHT22;5238;43.508;4.980;2023-02-24T11:50:12;18.20;91.30
10384;DHT22;5238;43.508;4.980;2023-02-24T11:52:44;18.30;91.30
10384;DHT22;5238;43.508;4.980;2023-02-24T11:55:22;18.40;91.30
10384;DHT22;5238;43.508;4.980;2023-02-24T11:57:53;18.50;91.30
10384;DHT22;5238;43.508;4.980;2023-02-24T12:00:27;18.60;91.30
10384;DHT22;5238;43.508;4.980;2023-02-24T12:03:03;18.70;91.30
10384;DHT22;5238;43.508;4.980;2023-02-24T12:05:39;18.80;91.30
10384;DHT22;5238;43.508;4.980;2023-02-24T12:08:11;18.80;91.30
10384;DHT22;5238;43.508;4.980;2023-02-24T12:10:48;18.80;91.30
10384;DHT22;5238;43.508;4.980;2023-02-24T12:13:26;18.80;91.30
10384;DHT22;5238;43.508;4.980;2023-02-24T12:16:00;18.80;91.30
10384;DHT22;5238;43.508;4.980;2023-02-24T12:18:32;18.80;91.30
10384;DHT22;5238;43.508;4.980;2023-02-24T12:21:04;18.80;91.30
10384;DHT22;5238;43.508;4.980;2023-02-24T12:23:34;18.80;91.30
10384;DHT22;5238;43.508;4.980;2023-02-24T12:26:19;18.80;91.30
10384;DHT22;5238;43.508;4.980;2023-02-24T12:29:08;18.80;91.30
10384;DHT22;5238;43.508;4.980;2023-02-24T12:31:52;18.80;91.30
10384;DHT22;5238;43.508;4.980;2023-02-24T12:34:26;18.80;91.30
10384;DHT22;5238;43.508;4.980;2023-02-24T12:37:09;18.80;91.30
10384;DHT22;5238;43.508;4.980;2023-02-24T12:39:47;18.80;91.30
10384;DHT22;5238;43.508;4.980;2023-02-24T12:42:25;18.70;91.30
10384;DHT22;5238;43.508;4.980;2023-02-24T12:45:02;18.70;91.30
10384;DHT22;5238;43.508;4.980;2023-02-24T12:47:41;18.60;91.30
10384;DHT22;5238;43.508;4.980;2023-02-24T12:50:35;18.60;91.30
10384;DHT22;5238;43.508;4.980;2023-02-24T12:53:11;18.50;91.30
10384;DHT22;5238;43.508;4.980;2023-02-24T12:55:49;18.40;91.30
10384;DHT22;5238;43.508;4.980;2023-02-24T12:58:27;18.30;91.30
10384;DHT22;5238;43.508;4.980;2023-02-24T13:01:05;18.30;91.30
10384;DHT22;5238;43.508;4.980;2023-02-24T13:03:51;18.20;91.30
10384;DHT22;5238;43.508;4.980;2023-02-24T13:06:27;18.20;91.30
10384;DHT22;5238;43.508;4.980;2023-02-24T13:09:00;18.10;91.30
10384;DHT22;5238;43.508;4.980;2023-02-24T13:11:38;18.10;91.30
10384;DHT22;5238;43.508;4.980;2023-02-24T13:14:15;18.00;91.30
10384;DHT22;5238;43.508;4.980;2023-02-24T13:16:46;18.00;91.30
10384;DHT22;5238;43.508;4.980;2023-02-24T13:19:28;18.00;91.30
10384;DHT22;5238;43.508;4.980;2023-02-24T13:22:01;18.00;91.30
10384;DHT22;5238;43.508;4.980;2023-02-24T13:24:29;18.00;91.30
10384;DHT22;5238;43.508;4.980;2023-02-24T13:27:05;18.00;91.30
10384;DHT22;5238;43.508;4.980;2023-02-24T13:29:45;18.00;91.30
10384;DHT22;5238;43.508;4.980;2023-02-24T13:32:30;18.00;91.30
10384;DHT22;5238;43.508;4.980;2023-02-24T13:35:04;18.00;91.30
10384;DHT22;5238;43.508;4.980;2023-02-24T13:37:36;18.10;91.30
10384;DHT22;5238;43.508;4.980;2023-02-24T13:40:22;18.10;91.30
10384;DHT22;5238;43.508;4.980;2023-02-24T13:42:59;18.20;91.30
10384;DHT22;5238;43.508;4.980;2023-02-24T13:45:30;18.20;91.30
10384;DHT22;5238;43.508;4.980;2023-02-24T13:48:24;18.20;91.30
10384;DHT22;5238;43.508;4.980;2023-02-24T13:51:18;18.10;91.30
10384;DHT22;5238;43.508;4.980;2023-02-24T13:54:02;18.00;91.30
10384;DHT22;5238;43.508;4.980;2023-02-24T13:56:39;17.90;91.30
10384;DHT22;5238;43.508;4.980;2023-02-24T14:02:13;17.70;91.30
10384;DHT22;5238;43.508;4.980;2023-02-24T14:04:45;17.60;91.30
10384;DHT22;5238;43.508;4.980;2023-02-24T14:07:19;17.50;91.30
10384;DHT22;5238;43.508;4.980;2023-02-24T14:09:51;17.40;91.30
10384;DHT22;5238;43.508;4.980;2023-02-24T14:12:20;17.30;91.30
10384;DHT22;5238;43.508;4.980;2023-02-24T14:14:49;17.20;91.30
10384;DHT22;5238;43.508;4.980;2023-02-24T14:17:23;17.10;91.30
10384;DHT22;5238;43.508;4.980;2023-02-24T14:19:54;17.10;91.30
10384;DHT22;5238;43.508;4.980;2023-02-24T14:22:24;17.10;91.30
10384;DHT22;5238;43.508;4.980;2023-02-24T14:25:00;17.10;91.30
10384;DHT22;5238;43.508;4.980;2023-02-24T14:27:31;17.00;91.30
10384;DHT22;5238;43.508;4.980;2023-02-24T14:29:58;17.00;91.30
10384;DHT22;5238;43.508;4.980;2023-02-24T14:32:26;17.00;91.30
10384;DHT22;5238;43.508;4.980;2023-02-24T14:34:54;17.00;91.30
10384;DHT22;5238;43.508;4.980;2023-02-24T14:37:25;17.00;91.30
10384;DHT22;5238;43.508;4.980;2023-02-24T14:39:57;17.00;91.30
10384;DHT22;5238;43.508;4.980;2023-02-24T14:42:26;16.90;91.30
10384;DHT22;5238;43.508;4.980;2023-02-24T14:44:55;17.00;91.30
10384;DHT22;5238;43.508;4.980;2023-02-24T14:47:25;17.00;91.30
10384;DHT22;5238;43.508;4.980;2023-02-24T14:49:56;17.00;91.30
10384;DHT22;5238;43.508;4.980;2023-02-24T14:52:32;17.00;91.30
10384;DHT22;5238;43.508;4.980;2023-02-24T14:55:03;17.10;91.30
10384;DHT22;5238;43.508;4.980;2023-02-24T14:57:34;17.10;91.30
10384;DHT22;5238;43.508;4.980;2023-02-24T15:00:07;17.10;91.30
10384;DHT22;5238;43.508;4.980;2023-02-24T15:02:46;17.10;91.30
10384;DHT22;5238;43.508;4.980;2023-02-24T15:05:16;17.10;91.30
10384;DHT22;5238;43.508;4.980;2023-02-24T15:07:44;17.10;91.30
10384;DHT22;5238;43.508;4.980;2023-02-24T15:10:20;17.10;91.30
10384;DHT22;5238;43.508;4.980;2023-02-24T15:12:50;17.00;91.30
10384;DHT22;5238;43.508;4.980;2023-02-24T15:15:21;17.00;91.30
10384;DHT22;5238;43.508;4.980;2023-02-24T15:17:54;17.00;91.30
10384;DHT22;5238;43.508;4.980;2023-02-24T15:20:58;16.90;91.30
10384;DHT22;5238;43.508;4.980;2023-02-24T15:23:31;16.90;91.30
10384;DHT22;5238;43.508;4.980;2023-02-24T15:25:58;16.80;91.30
10384;DHT22;5238;43.508;4.980;2023-02-24T15:28:27;16.80;91.30
10384;DHT22;5238;43.508;4.980;2023-02-24T15:31:00;16.80;91.30
10384;DHT22;5238;43.508;4.980;2023-02-24T15:33:32;16.70;91.30
10384;DHT22;5238;43.508;4.980;2023-02-24T15:35:59;16.70;91.30
10384;DHT22;5238;43.508;4.980;2023-02-24T15:38:34;16.70;91.30
10384;DHT22;5238;43.508;4.980;2023-02-24T15:41:04;16.60;91.30
10384;DHT22;5238;43.508;4.980;2023-02-24T15:43:35;16.60;91.30
10384;DHT22;5238;43.508;4.980;2023-02-24T15:46:21;16.60;91.30
10384;DHT22;5238;43.508;4.980;2023-02-24T15:48:50;16.60;91.30
10384;DHT22;5238;43.508;4.980;2023-02-24T15:51:22;16.60;91.30
10384;DHT22;5238;43.508;4.980;2023-02-24T15:53:54;16.50;91.30
10384;DHT22;5238;43.508;4.980;2023-02-24T15:56:22;16.50;91.30
10384;DHT22;5238;43.508;4.980;2023-02-24T15:58:49;16.50;91.30
10384;DHT22;5238;43.508;4.980;2023-02-24T16:01:16;16.50;91.30
10384;DHT22;5238;43.508;4.980;2023-02-24T16:03:43;16.40;91.30
10384;DHT22;5238;43.508;4.980;2023-02-24T16:06:17;16.40;91.30
10384;DHT22;5238;43.508;4.980;2023-02-24T16:08:46;16.40;91.30
10384;DHT22;5238;43.508;4.980;2023-02-24T16:11:17;16.40;91.30
10384;DHT22;5238;43.508;4.980;2023-02-24T16:13:51;16.40;91.30
10384;DHT22;5238;43.508;4.980;2023-02-24T16:16:20;16.30;91.30
10384;DHT22;5238;43.508;4.980;2023-02-24T16:18:48;16.30;91.30
10384;DHT22;5238;43.508;4.980;2023-02-24T16:21:15;16.20;91.30
10384;DHT22;5238;43.508;4.980;2023-02-24T16:23:42;16.20;91.30
10384;DHT22;5238;43.508;4.980;2023-02-24T16:26:18;16.20;91.30
10384;DHT22;5238;43.508;4.980;2023-02-24T16:28:51;16.10;91.30
10384;DHT22;5238;43.508;4.980;2023-02-24T16:31:19;16.00;91.30
10384;DHT22;5238;43.508;4.980;2023-02-24T16:33:46;16.00;91.30
10384;DHT22;5238;43.508;4.980;2023-02-24T16:36:13;15.90;91.30
10384;DHT22;5238;43.508;4.980;2023-02-24T16:38:41;15.90;91.30
10384;DHT22;5238;43.508;4.980;2023-02-24T16:41:11;15.80;91.30
10384;DHT22;5238;43.508;4.980;2023-02-24T16:43:40;15.80;91.30
10384;DHT22;5238;43.508;4.980;2023-02-24T16:46:13;15.80;91.30
10384;DHT22;5238;43.508;4.980;2023-02-24T16:48:44;15.70;91.30
10384;DHT22;5238;43.508;4.980;2023-02-24T16:51:12;15.70;91.30
10384;DHT22;5238;43.508;4.980;2023-02-24T16:53:54;15.70;91.30
10384;DHT22;5238;43.508;4.980;2023-02-24T16:56:21;15.60;91.30
10384;DHT22;5238;43.508;4.980;2023-02-24T16:58:50;15.60;91.30
10384;DHT22;5238;43.508;4.980;2023-02-24T17:01:19;15.50;91.30
10384;DHT22;5238;43.508;4.980;2023-02-24T17:03:49;15.50;91.30
10384;DHT22;5238;43.508;4.980;2023-02-24T17:06:22;15.40;91.30
10384;DHT22;5238;43.508;4.980;2023-02-24T17:08:53;15.40;91.30
10384;DHT22;5238;43.508;4.980;2023-02-24T17:11:21;15.30;91.30
10384;DHT22;5238;43.508;4.980;2023-02-24T17:13:50;15.30;91.30
10384;DHT22;5238;43.508;4.980;2023-02-24T17:16:19;15.20;91.30
10384;DHT22;5238;43.508;4.980;2023-02-24T17:18:52;15.20;91.30
10384;DHT22;5238;43.508;4.980;2023-02-24T17:21:19;15.20;91.30
10384;DHT22;5238;43.508;4.980;2023-02-24T17:23:46;15.20;91.30
10384;DHT22;5238;43.508;4.980;2023-02-24T17:26:14;15.10;91.30
10384;DHT22;5238;43.508;4.980;2023-02-24T17:28:43;15.10;91.30
10384;DHT22;5238;43.508;4.980;2023-02-24T17:31:12;15.10;91.30
10384;DHT22;5238;43.508;4.980;2023-02-24T17:33:39;15.10;91.30
10384;DHT22;5238;43.508;4.980;2023-02-24T17:36:28;15.10;91.30
10384;DHT22;5238;43.508;4.980;2023-02-24T17:39:14;15.10;91.30
10384;DHT22;5238;43.508;4.980;2023-02-24T17:41:57;15.10;91.30
10384;DHT22;5238;43.508;4.980;2023-02-24T17:44:37;15.10;91.30
10384;DHT22;5238;43.508;4.980;2023-02-24T17:50:21;15.00;91.30
10384;DHT22;5238;43.508;4.980;2023-02-24T17:52:51;15.00;91.30
10384;DHT22;5238;43.508;4.980;2023-02-24T17:55:19;15.00;91.30
10384;DHT22;5238;43.508;4.980;2023-02-24T17:57:54;15.00;91.30
10384;DHT22;5238;43.508;4.980;2023-02-24T18:00:21;15.00;91.30
10384;DHT22;5238;43.508;4.980;2023-02-24T18:02:49;15.00;91.30
10384;DHT22;5238;43.508;4.980;2023-02-24T18:05:43;15.00;91.30
10384;DHT22;5238;43.508;4.980;2023-02-24T18:08:13;15.00;91.30
10384;DHT22;5238;43.508;4.980;2023-02-24T18:10:46;15.00;91.30
10384;DHT22;5238;43.508;4.980;2023-02-24T18:13:20;15.00;91.30
10384;DHT22;5238;43.508;4.980;2023-02-24T18:15:57;15.00;91.30
10384;DHT22;5238;43.508;4.980;2023-02-24T18:18:32;15.00;91.30
10384;DHT22;5238;43.508;4.980;2023-02-24T18:21:24;15.00;91.30
10384;DHT22;5238;43.508;4.980;2023-02-24T18:23:56;15.00;91.30
10384;DHT22;5238;43.508;4.980;2023-02-24T18:26:23;14.90;91.30
10384;DHT22;5238;43.508;4.980;2023-02-24T18:28:53;14.90;91.30
10384;DHT22;5238;43.508;4.980;2023-02-24T18:31:41;14.90;91.30
10384;DHT22;5238;43.508;4.980;2023-02-24T18:34:09;14.90;91.30
10384;DHT22;5238;43.508;4.980;2023-02-24T18:36:43;14.90;91.30
10384;DHT22;5238;43.508;4.980;2023-02-24T18:39:13;14.90;91.30
10384;DHT22;5238;43.508;4.980;2023-02-24T18:41:49;14.90;91.30
10384;DHT22;5238;43.508;4.980;2023-02-24T18:44:41;14.90;91.30
10384;DHT22;5238;43.508;4.980;2023-02-24T18:47:13;14.90;91.30
10384;DHT22;5238;43.508;4.980;2023-02-24T18:50:01;14.90;91.30
10384;DHT22;5238;43.508;4.980;2023-02-24T18:52:34;14.90;91.30
10384;DHT22;5238;43.508;4.980;2023-02-24T18:55:08;14.90;91.30
10384;DHT22;5238;43.508;4.980;2023-02-24T18:57:57;14.90;91.30
10384;DHT22;5238;43.508;4.980;2023-02-24T19:00:25;15.00;91.30
10384;DHT22;5238;43.508;4.980;2023-02-24T19:03:07;15.00;91.30
10384;DHT22;5238;43.508;4.980;2023-02-24T19:06:02;15.00;91.30
10384;DHT22;5238;43.508;4.980;2023-02-24T19:09:05;15.00;91.30
10384;DHT22;5238;43.508;4.980;2023-02-24T19:15:29;15.10;91.30
10384;DHT22;5238;43.508;4.980;2023-02-24T19:18:27;15.00;91.30
10384;DHT22;5238;43.508;4.980;2023-02-24T19:21:15;15.10;91.30
10384;DHT22;5238;43.508;4.980;2023-02-24T19:27:15;15.00;91.30
10384;DHT22;5238;43.508;4.980;2023-02-24T19:33:50;15.00;91.30
10384;DHT22;5238;43.508;4.980;2023-02-24T19:36:55;15.00;91.30
10384;DHT22;5238;43.508;4.980;2023-02-24T19:39:24;15.00;91.30
10384;DHT22;5238;43.508;4.980;2023-02-24T19:42:00;14.90;91.30
10384;DHT22;5238;43.508;4.980;2023-02-24T19:48:32;14.90;91.30
10384;DHT22;5238;43.508;4.980;2023-02-24T19:51:37;14.90;91.30
10384;DHT22;5238;43.508;4.980;2023-02-24T19:54:05;14.80;91.30
10384;DHT22;5238;43.508;4.980;2023-02-24T19:56:47;14.80;91.30
10384;DHT22;5238;43.508;4.980;2023-02-24T19:59:20;14.80;91.30
10384;DHT22;5238;43.508;4.980;2023-02-24T20:01:53;14.80;91.30
10384;DHT22;5238;43.508;4.980;2023-02-24T20:04:23;14.80;91.30
10384;DHT22;5238;43.508;4.980;2023-02-24T20:10:30;14.70;91.30
10384;DHT22;5238;43.508;4.980;2023-02-24T20:12:59;14.70;91.30
10384;DHT22;5238;43.508;4.980;2023-02-24T20:15:27;14.60;91.30
10384;DHT22;5238;43.508;4.980;2023-02-24T20:18:06;14.60;91.30
10384;DHT22;5238;43.508;4.980;2023-02-24T20:21:11;14.60;91.30
10384;DHT22;5238;43.508;4.980;2023-02-24T20:24:27;14.60;91.30
10384;DHT22;5238;43.508;4.980;2023-02-24T20:26:54;14.60;91.30
10384;DHT22;5238;43.508;4.980;2023-02-24T20:29:23;14.60;91.30
10384;DHT22;5238;43.508;4.980;2023-02-24T20:31:50;14.60;91.30
10384;DHT22;5238;43.508;4.980;2023-02-24T20:34:19;14.60;91.30
10384;DHT22;5238;43.508;4.980;2023-02-24T20:36:52;14.60;91.30
10384;DHT22;5238;43.508;4.980;2023-02-24T20:39:22;14.60;91.30
10384;DHT22;5238;43.508;4.980;2023-02-24T20:41:50;14.50;91.30
10384;DHT22;5238;43.508;4.980;2023-02-24T20:44:18;14.50;91.30
10384;DHT22;5238;43.508;4.980;2023-02-24T20:46:45;14.50;91.30
10384;DHT22;5238;43.508;4.980;2023-02-24T20:49:13;14.50;91.30
10384;DHT22;5238;43.508;4.980;2023-02-24T20:51:42;14.40;91.30
10384;DHT22;5238;43.508;4.980;2023-02-24T20:54:12;14.40;91.30
10384;DHT22;5238;43.508;4.980;2023-02-24T20:56:41;14.40;91.30
10384;DHT22;5238;43.508;4.980;2023-02-24T20:59:11;14.40;91.30
10384;DHT22;5238;43.508;4.980;2023-02-24T21:01:38;14.40;91.30
10384;DHT22;5238;43.508;4.980;2023-02-24T21:04:05;14.40;91.30
10384;DHT22;5238;43.508;4.980;2023-02-24T21:06:34;14.40;91.30
10384;DHT22;5238;43.508;4.980;2023-02-24T21:09:02;14.40;91.30
10384;DHT22;5238;43.508;4.980;2023-02-24T21:11:30;14.40;91.30
10384;DHT22;5238;43.508;4.980;2023-02-24T21:13:58;14.40;91.30
10384;DHT22;5238;43.508;4.980;2023-02-24T21:16:27;14.40;91.30
10384;DHT22;5238;43.508;4.980;2023-02-24T21:18:57;14.50;91.30
10384;DHT22;5238;43.508;4.980;2023-02-24T21:21:25;14.50;91.30
10384;DHT22;5238;43.508;4.980;2023-02-24T21:23:52;14.50;91.30
10384;DHT22;5238;43.508;4.980;2023-02-24T21:26:19;14.50;91.30